createdAt,value
2022-07-30T00:01:21.954Z,16.36
2022-07-30T00:03:49.562Z,16.23
2022-07-30T00:06:18.639Z,16.21
2022-07-30T00:08:45.609Z,16.19
2022-07-30T00:11:13.068Z,16.21
2022-07-30T00:13:40.469Z,16.21
2022-07-30T00:16:07.887Z,16.50
2022-07-30T00:18:35.307Z,16.41
2022-07-30T00:21:02.930Z,16.58
2022-07-30T00:23:30.405Z,16.68
2022-07-30T00:25:57.979Z,16.72
2022-07-30T00:28:25.400Z,16.87
2022-07-30T00:30:56.181Z,16.82
2022-07-30T00:33:23.867Z,16.68
2022-07-30T00:35:51.252Z,16.59
2022-07-30T00:38:18.627Z,16.36
2022-07-30T00:40:49.276Z,15.93
2022-07-30T00:43:17.541Z,15.72
2022-07-30T00:45:45.070Z,15.82
2022-07-30T00:48:14.046Z,16.01
2022-07-30T00:50:41.798Z,16.13
2022-07-30T00:53:12.300Z,16.10
2022-07-30T00:55:39.434Z,16.23
2022-07-30T00:58:06.509Z,16.25
2022-07-30T01:00:33.502Z,16.08
2022-07-30T01:03:00.511Z,16.04
2022-07-30T01:05:27.501Z,16.15
2022-07-30T01:07:55.283Z,16.11
2022-07-30T01:10:22.613Z,16.04
2022-07-30T01:12:52.601Z,15.79
2022-07-30T01:15:20.365Z,15.56
2022-07-30T01:17:52.882Z,15.40
2022-07-30T01:21:05.739Z,15.35
2022-07-30T01:23:39.862Z,15.47
2022-07-30T01:26:14.970Z,15.28
2022-07-30T01:28:54.990Z,15.53
2022-07-30T01:31:26.081Z,15.51
2022-07-30T01:33:54.992Z,15.35
2022-07-30T01:36:23.489Z,15.18
2022-07-30T01:38:52.239Z,15.26
2022-07-30T01:41:20.493Z,15.42
2022-07-30T01:43:47.945Z,15.45
2022-07-30T01:46:17.815Z,15.14
2022-07-30T01:48:48.149Z,14.89
2022-07-30T01:51:18.392Z,14.82
2022-07-30T01:53:51.632Z,14.77
2022-07-30T01:56:24.507Z,14.73
2022-07-30T01:58:54.663Z,14.83
2022-07-30T02:01:25.102Z,14.73
2022-07-30T02:04:01.220Z,14.58
2022-07-30T02:06:42.873Z,14.52
2022-07-30T02:09:20.126Z,14.47
2022-07-30T02:12:07.068Z,14.46
2022-07-30T02:14:48.447Z,14.40
2022-07-30T02:17:30.159Z,14.36
2022-07-30T02:20:05.636Z,14.50
2022-07-30T02:22:41.072Z,14.42
2022-07-30T02:25:10.645Z,14.30
2022-07-30T02:27:42.134Z,14.23
2022-07-30T02:30:11.337Z,14.41
2022-07-30T02:32:42.891Z,14.35
2022-07-30T02:35:18.813Z,14.28
2022-07-30T02:37:50.803Z,14.36
2022-07-30T02:40:20.476Z,14.39
2022-07-30T02:42:50.659Z,14.39
2022-07-30T02:45:22.753Z,14.45
2022-07-30T02:47:58.938Z,14.61
2022-07-30T02:50:28.188Z,14.42
2022-07-30T02:52:58.501Z,14.42
2022-07-30T02:55:28.897Z,14.47
2022-07-30T02:57:57.732Z,14.43
2022-07-30T03:00:29.511Z,14.37
2022-07-30T03:02:57.756Z,14.60
2022-07-30T03:05:26.845Z,14.40
2022-07-30T03:07:59.762Z,14.55
2022-07-30T03:10:27.838Z,14.52
2022-07-30T03:12:56.339Z,14.67
2022-07-30T03:15:23.703Z,14.34
2022-07-30T03:17:55.548Z,14.06
2022-07-30T03:20:30.141Z,13.91
2022-07-30T03:22:59.972Z,13.85
2022-07-30T03:25:31.086Z,13.63
2022-07-30T03:28:04.070Z,13.55
2022-07-30T03:30:33.613Z,13.42
2022-07-30T03:33:01.278Z,13.35
2022-07-30T03:35:31.275Z,13.27
2022-07-30T03:38:00.059Z,13.24
2022-07-30T03:40:27.814Z,13.17
2022-07-30T03:42:55.958Z,13.14
2022-07-30T03:45:25.510Z,13.09
2022-07-30T03:47:58.250Z,13.00
2022-07-30T03:50:26.174Z,12.93
2022-07-30T03:52:53.729Z,12.88
2022-07-30T03:55:22.213Z,12.83
2022-07-30T03:57:49.345Z,12.79
2022-07-30T04:00:18.297Z,12.73
2022-07-30T04:02:50.079Z,12.74
2022-07-30T04:05:17.287Z,12.73
2022-07-30T04:07:46.549Z,12.77
2022-07-30T04:10:16.330Z,12.84
2022-07-30T04:13:12.553Z,12.90
2022-07-30T04:16:38.236Z,12.84
2022-07-30T04:18:51.229Z,12.83
2022-07-30T04:21:20.789Z,12.79
2022-07-30T04:24:02.295Z,12.74
2022-07-30T04:26:35.495Z,12.69
2022-07-30T04:29:06.944Z,12.64
2022-07-30T04:31:40.287Z,12.55
2022-07-30T04:34:55.994Z,12.69
2022-07-30T04:37:55.157Z,12.91
2022-07-30T04:40:22.300Z,12.94
2022-07-30T04:42:49.530Z,13.10
2022-07-30T04:45:16.937Z,13.16
2022-07-30T04:47:53.745Z,13.38
2022-07-30T04:50:46.346Z,13.41
2022-07-30T04:53:19.617Z,13.60
2022-07-30T04:55:57.311Z,13.60
2022-07-30T04:58:28.698Z,13.67
2022-07-30T05:00:57.911Z,13.77
2022-07-30T05:03:30.422Z,13.86
2022-07-30T05:05:59.113Z,13.98
2022-07-30T05:08:31.278Z,14.18
2022-07-30T05:11:00.901Z,14.66
2022-07-30T05:13:34.510Z,15.19
2022-07-30T05:16:05.805Z,15.93
2022-07-30T05:18:32.965Z,16.66
2022-07-30T05:21:00.163Z,17.83
2022-07-30T05:23:42.099Z,18.49
2022-07-30T05:26:50.463Z,19.72
2022-07-30T05:29:20.008Z,21.70
2022-07-30T05:32:09.720Z,22.99
2022-07-30T05:34:37.384Z,23.76
2022-07-30T05:37:05.009Z,24.22
2022-07-30T05:39:32.467Z,24.95
2022-07-30T05:42:19.905Z,24.34
2022-07-30T05:44:49.201Z,25.12
2022-07-30T05:47:16.198Z,24.90
2022-07-30T05:49:44.747Z,25.33
2022-07-30T05:52:15.111Z,24.72
2022-07-30T05:54:42.618Z,24.20
2022-07-30T05:57:36.799Z,25.76
2022-07-30T06:00:07.659Z,24.98
2022-07-30T06:02:43.864Z,26.04
2022-07-30T06:05:37.034Z,27.47
2022-07-30T06:08:04.410Z,27.10
2022-07-30T06:10:32.286Z,26.95
2022-07-30T06:12:59.669Z,27.36
2022-07-30T06:15:27.141Z,28.13
2022-07-30T06:17:59.567Z,27.87
2022-07-30T06:20:55.692Z,28.17
2022-07-30T06:23:31.055Z,29.39
2022-07-30T06:26:09.381Z,29.18
2022-07-30T06:28:38.550Z,27.97
2022-07-30T06:31:15.210Z,27.66
2022-07-30T06:33:43.227Z,27.82
2022-07-30T06:36:14.046Z,27.66
2022-07-30T06:39:07.955Z,27.74
2022-07-30T06:42:00.819Z,29.29
2022-07-30T06:44:38.365Z,29.91
2022-07-30T06:47:28.940Z,28.98
2022-07-30T06:49:57.688Z,28.78
2022-07-30T06:52:26.309Z,29.29
2022-07-30T06:54:54.674Z,29.57
2022-07-30T06:57:38.751Z,29.72
2022-07-30T07:00:17.770Z,28.50
2022-07-30T07:02:46.174Z,28.50
2022-07-30T07:05:14.790Z,29.23
2022-07-30T07:07:58.188Z,29.85
2022-07-30T07:10:28.486Z,29.48
2022-07-30T07:13:16.009Z,28.76
2022-07-30T07:15:43.333Z,30.14
2022-07-30T07:18:15.406Z,30.87
2022-07-30T07:20:49.789Z,30.68
2022-07-30T07:23:19.599Z,31.87
2022-07-30T07:25:48.827Z,31.74
2022-07-30T07:28:16.760Z,31.37
2022-07-30T07:30:45.073Z,31.46
2022-07-30T07:33:15.616Z,30.65
2022-07-30T07:35:49.704Z,31.69
2022-07-30T07:38:25.783Z,32.01
2022-07-30T07:40:54.442Z,31.23
2022-07-30T07:43:22.023Z,31.27
2022-07-30T07:45:49.971Z,31.78
2022-07-30T07:48:19.258Z,30.99
2022-07-30T07:50:51.708Z,31.23
2022-07-30T07:53:30.691Z,31.11
2022-07-30T07:55:58.740Z,32.01
2022-07-30T07:58:27.166Z,30.95
2022-07-30T08:00:58.346Z,31.18
2022-07-30T08:03:45.352Z,32.77
2022-07-30T08:06:32.360Z,32.39
2022-07-30T08:09:43.859Z,31.68
2022-07-30T08:12:27.642Z,32.11
2022-07-30T08:15:13.165Z,31.46
2022-07-30T08:18:03.066Z,31.71
2022-07-30T08:20:39.843Z,32.32
2022-07-30T08:23:08.303Z,31.25
2022-07-30T08:25:35.425Z,32.13
2022-07-30T08:28:03.366Z,32.34
2022-07-30T08:30:31.502Z,32.48
2022-07-30T08:32:59.501Z,32.58
2022-07-30T08:35:26.565Z,33.88
2022-07-30T08:37:53.668Z,34.63
2022-07-30T08:40:26.516Z,34.37
2022-07-30T08:43:05.476Z,34.62
2022-07-30T08:45:35.280Z,34.06
2022-07-30T08:48:29.598Z,35.07
2022-07-30T08:50:57.189Z,34.26
2022-07-30T08:53:35.523Z,34.94
2022-07-30T08:56:04.775Z,35.49
2022-07-30T08:58:36.960Z,35.88
2022-07-30T09:01:05.998Z,35.83
2022-07-30T09:03:34.082Z,35.29
2022-07-30T09:06:04.247Z,35.48
2022-07-30T09:08:32.347Z,32.97
2022-07-30T09:11:00.380Z,30.82
2022-07-30T09:13:34.452Z,31.05
2022-07-30T09:16:03.369Z,31.85
2022-07-30T09:18:40.780Z,31.44
2022-07-30T09:21:24.431Z,30.11
2022-07-30T09:24:13.599Z,31.26
2022-07-30T09:27:07.145Z,31.11
2022-07-30T09:29:37.460Z,32.83
2022-07-30T09:32:23.422Z,31.66
2022-07-30T09:35:29.248Z,30.54
2022-07-30T09:38:12.265Z,31.68
2022-07-30T09:41:04.906Z,30.81
2022-07-30T09:43:44.545Z,32.08
2022-07-30T09:46:20.340Z,33.60
2022-07-30T09:48:49.403Z,33.87
2022-07-30T09:51:18.481Z,35.05
2022-07-30T09:53:56.993Z,35.46
2022-07-30T09:56:30.046Z,34.16
2022-07-30T09:58:58.999Z,34.13
2022-07-30T10:01:49.856Z,35.57
2022-07-30T10:04:34.646Z,36.10
2022-07-30T10:07:25.203Z,37.35
2022-07-30T10:10:00.539Z,36.98
2022-07-30T10:12:29.006Z,35.95
2022-07-30T10:14:59.173Z,36.86
2022-07-30T10:17:28.422Z,36.14
2022-07-30T10:20:17.980Z,36.42
2022-07-30T10:22:46.691Z,36.72
2022-07-30T10:25:35.296Z,37.85
2022-07-30T10:28:10.425Z,36.98
2022-07-30T10:30:38.259Z,35.32
2022-07-30T10:33:08.854Z,36.19
2022-07-30T10:35:56.711Z,36.08
2022-07-30T10:38:28.220Z,36.94
2022-07-30T10:41:22.324Z,35.31
2022-07-30T10:44:33.304Z,35.31
2022-07-30T10:47:07.775Z,35.99
2022-07-30T10:49:40.996Z,36.51
2022-07-30T10:52:10.227Z,36.76
2022-07-30T10:54:42.859Z,38.63
2022-07-30T10:57:15.221Z,38.56
2022-07-30T10:59:57.565Z,38.16
2022-07-30T11:02:28.964Z,37.68
2022-07-30T11:05:17.657Z,36.84
2022-07-30T11:07:47.457Z,38.23
2022-07-30T11:10:35.280Z,38.55
2022-07-30T11:13:08.692Z,37.51
2022-07-30T11:15:52.753Z,35.72
2022-07-30T11:18:20.580Z,34.08
2022-07-30T11:21:13.898Z,34.34
2022-07-30T11:23:41.464Z,35.54
2022-07-30T11:26:14.498Z,36.75
2022-07-30T11:28:43.102Z,35.82
2022-07-30T11:31:36.970Z,35.68
2022-07-30T11:34:19.466Z,37.95
2022-07-30T11:37:19.076Z,38.02
2022-07-30T11:39:56.034Z,37.66
2022-07-30T11:42:34.833Z,37.45
2022-07-30T11:45:29.742Z,37.45
2022-07-30T11:48:00.110Z,36.93
2022-07-30T11:50:30.210Z,34.86
2022-07-30T11:53:09.522Z,34.62
2022-07-30T11:55:39.185Z,33.40
2022-07-30T11:58:23.982Z,33.08
2022-07-30T12:00:51.852Z,32.20
2022-07-30T12:03:21.370Z,33.07
2022-07-30T12:05:51.049Z,32.08
2022-07-30T12:08:33.545Z,32.77
2022-07-30T12:11:03.629Z,33.79
2022-07-30T12:13:45.441Z,34.46
2022-07-30T12:16:17.507Z,33.81
2022-07-30T12:18:45.790Z,32.77
2022-07-30T12:21:16.292Z,32.41
2022-07-30T12:24:04.618Z,31.13
2022-07-30T12:26:34.200Z,32.27
2022-07-30T12:29:04.864Z,33.56
2022-07-30T12:31:33.828Z,33.68
2022-07-30T12:34:01.364Z,32.18
2022-07-30T12:36:35.032Z,30.84
2022-07-30T12:39:04.811Z,31.08
2022-07-30T12:41:45.721Z,31.98
2022-07-30T12:44:40.072Z,33.40
2022-07-30T12:47:19.201Z,35.22
2022-07-30T12:49:49.884Z,35.39
2022-07-30T12:52:31.240Z,36.13
2022-07-30T12:55:08.907Z,35.67
2022-07-30T12:57:56.730Z,35.39
2022-07-30T13:00:26.667Z,35.23
2022-07-30T13:02:54.147Z,35.85
2022-07-30T13:05:21.925Z,36.09
2022-07-30T13:07:59.803Z,35.06
2022-07-30T13:10:31.302Z,34.49
2022-07-30T13:12:59.532Z,33.05
2022-07-30T13:15:26.937Z,32.75
2022-07-30T13:17:54.341Z,32.11
2022-07-30T13:20:22.199Z,31.87
2022-07-30T13:22:49.568Z,31.87
2022-07-30T13:25:18.041Z,31.74
2022-07-30T13:27:45.389Z,32.10
2022-07-30T13:30:13.088Z,31.70
2022-07-30T13:32:40.453Z,31.85
2022-07-30T13:35:08.287Z,31.60
2022-07-30T13:37:37.729Z,31.29
2022-07-30T13:40:06.542Z,30.93
2022-07-30T13:42:34.011Z,30.75
2022-07-30T13:45:01.403Z,30.66
2022-07-30T13:47:29.163Z,30.16
2022-07-30T13:49:56.502Z,29.86
2022-07-30T13:52:23.911Z,30.32
2022-07-30T13:54:53.638Z,30.44
2022-07-30T13:57:21.089Z,29.99
2022-07-30T13:59:48.498Z,29.94
2022-07-30T14:02:15.872Z,30.24
2022-07-30T14:04:43.236Z,30.43
2022-07-30T14:07:10.598Z,30.22
2022-07-30T14:09:45.869Z,29.70
2022-07-30T14:12:15.411Z,29.85
2022-07-30T14:14:42.766Z,29.62
2022-07-30T14:17:10.166Z,29.37
2022-07-30T14:19:37.556Z,29.16
2022-07-30T14:22:05.026Z,29.45
2022-07-30T14:24:32.409Z,29.30
2022-07-30T14:27:00.325Z,29.01
2022-07-30T14:29:28.220Z,29.00
2022-07-30T14:31:56.040Z,29.18
2022-07-30T14:34:23.603Z,29.11
2022-07-30T14:36:51.004Z,29.12
2022-07-30T14:39:18.459Z,29.03
2022-07-30T14:41:46.178Z,29.35
2022-07-30T14:44:13.795Z,29.54
2022-07-30T14:46:51.620Z,29.54
2022-07-30T14:49:23.934Z,29.57
2022-07-30T14:51:52.158Z,29.30
2022-07-30T14:54:20.118Z,29.34
2022-07-30T14:56:47.559Z,29.55
2022-07-30T14:59:15.048Z,29.59
2022-07-30T15:01:43.805Z,29.70
2022-07-30T15:04:11.609Z,29.91
2022-07-30T15:06:40.755Z,29.99
2022-07-30T15:09:08.931Z,29.91
2022-07-30T15:12:04.387Z,29.96
2022-07-30T15:14:24.763Z,29.78
2022-07-30T15:16:52.262Z,29.62
2022-07-30T15:19:19.309Z,29.41
2022-07-30T15:21:46.326Z,29.17
2022-07-30T15:24:13.347Z,29.22
2022-07-30T15:26:40.499Z,29.35
2022-07-30T15:29:11.641Z,29.24
2022-07-30T15:31:40.240Z,29.16
2022-07-30T15:34:10.899Z,29.09
2022-07-30T15:36:41.752Z,29.27
2022-07-30T15:39:08.772Z,29.15
2022-07-30T15:41:37.205Z,28.78
2022-07-30T15:44:04.641Z,28.59
2022-07-30T15:46:31.614Z,28.47
2022-07-30T15:48:58.950Z,28.20
2022-07-30T15:51:26.003Z,28.23
2022-07-30T15:53:52.986Z,28.25
2022-07-30T15:56:20.687Z,28.22
2022-07-30T15:58:47.783Z,28.18
2022-07-30T16:01:14.889Z,27.97
2022-07-30T16:03:42.332Z,27.93
2022-07-30T16:06:09.713Z,27.95
2022-07-30T16:08:37.123Z,28.00
2022-07-30T16:11:04.713Z,27.96
2022-07-30T16:13:32.451Z,27.97
2022-07-30T16:15:59.797Z,27.95
2022-07-30T16:18:27.262Z,27.81
2022-07-30T16:20:58.510Z,27.49
2022-07-30T16:23:26.173Z,27.41
2022-07-30T16:25:53.658Z,27.31
2022-07-30T16:28:21.045Z,27.23
2022-07-30T16:30:51.378Z,27.18
2022-07-30T16:33:19.940Z,27.28
2022-07-30T16:35:49.151Z,27.37
2022-07-30T16:38:19.831Z,27.57
2022-07-30T16:40:47.576Z,27.85
2022-07-30T16:43:16.184Z,28.07
2022-07-30T16:45:44.088Z,28.17
2022-07-30T16:48:12.011Z,28.04
2022-07-30T16:50:40.728Z,28.02
2022-07-30T16:53:13.288Z,27.89
2022-07-30T16:55:45.014Z,27.86
2022-07-30T16:58:12.779Z,27.75
2022-07-30T17:00:40.575Z,27.72
2022-07-30T17:03:08.597Z,27.69
2022-07-30T17:05:37.792Z,27.52
2022-07-30T17:08:13.627Z,27.51
2022-07-30T17:10:41.573Z,27.45
2022-07-30T17:13:09.193Z,27.38
2022-07-30T17:15:36.585Z,27.32
2022-07-30T17:18:04.171Z,27.21
2022-07-30T17:20:32.050Z,27.14
2022-07-30T17:22:59.464Z,27.08
2022-07-30T17:25:27.488Z,27.05
2022-07-30T17:27:56.274Z,27.05
2022-07-30T17:30:24.341Z,26.99
2022-07-30T17:32:52.040Z,26.96
2022-07-30T17:35:20.053Z,26.94
2022-07-30T17:37:47.455Z,26.85
2022-07-30T17:40:30.333Z,26.74
2022-07-30T17:43:04.006Z,26.69
2022-07-30T17:45:32.522Z,26.59
2022-07-30T17:48:01.540Z,26.51
2022-07-30T17:50:33.082Z,26.45
2022-07-30T17:53:03.461Z,26.34
2022-07-30T17:55:34.803Z,26.18
2022-07-30T17:58:03.912Z,26.09
2022-07-30T18:00:31.479Z,25.98
2022-07-30T18:02:59.114Z,25.85
2022-07-30T18:05:26.731Z,25.75
2022-07-30T18:07:54.124Z,25.58
2022-07-30T18:10:21.662Z,25.48
2022-07-30T18:12:49.491Z,25.41
2022-07-30T18:15:18.081Z,25.35
2022-07-30T18:17:46.055Z,25.27
2022-07-30T18:20:14.113Z,25.15
2022-07-30T18:22:42.053Z,25.08
2022-07-30T18:25:19.125Z,25.05
2022-07-30T18:27:47.663Z,24.97
2022-07-30T18:30:15.472Z,24.90
2022-07-30T18:32:43.479Z,24.81
2022-07-30T18:35:14.423Z,24.71
2022-07-30T18:37:43.249Z,24.62
2022-07-30T18:40:12.530Z,24.49
2022-07-30T18:42:40.070Z,24.37
2022-07-30T18:45:08.764Z,24.28
2022-07-30T18:47:36.208Z,24.17
2022-07-30T18:50:03.895Z,24.02
2022-07-30T18:52:31.268Z,23.92
2022-07-30T18:54:58.722Z,23.84
2022-07-30T18:57:26.256Z,23.79
2022-07-30T18:59:53.706Z,23.67
2022-07-30T19:02:21.265Z,23.53
2022-07-30T19:04:48.679Z,23.38
2022-07-30T19:07:16.020Z,23.25
2022-07-30T19:09:43.557Z,23.16
2022-07-30T19:12:11.029Z,23.20
2022-07-30T19:14:38.819Z,23.14
2022-07-30T19:17:13.666Z,23.07
2022-07-30T19:19:41.646Z,23.01
2022-07-30T19:22:09.172Z,22.86
2022-07-30T19:24:36.550Z,22.67
2022-07-30T19:27:04.666Z,22.50
2022-07-30T19:29:32.156Z,22.16
2022-07-30T19:32:00.080Z,21.88
2022-07-30T19:34:27.645Z,22.01
2022-07-30T19:36:55.053Z,21.87
2022-07-30T19:39:22.384Z,21.58
2022-07-30T19:41:51.095Z,21.46
2022-07-30T19:44:18.975Z,21.62
2022-07-30T19:46:48.751Z,21.41
2022-07-30T19:49:19.848Z,21.45
2022-07-30T19:52:10.041Z,21.46
2022-07-30T19:54:36.934Z,21.31
2022-07-30T19:57:04.844Z,21.14
2022-07-30T19:59:59.338Z,21.11
2022-07-30T20:02:22.465Z,20.92
2022-07-30T20:04:50.124Z,20.85
2022-07-30T20:07:17.584Z,20.57
2022-07-30T20:09:44.839Z,20.55
2022-07-30T20:12:15.529Z,20.45
2022-07-30T20:14:44.125Z,20.24
2022-07-30T20:17:11.110Z,20.24
2022-07-30T20:19:38.192Z,20.23
2022-07-30T20:22:14.751Z,20.19
2022-07-30T20:24:42.466Z,20.11
2022-07-30T20:27:36.560Z,19.99
2022-07-30T20:29:56.720Z,19.88
2022-07-30T20:32:24.630Z,19.81
2022-07-30T20:34:52.377Z,19.70
2022-07-30T20:37:21.736Z,19.53
2022-07-30T20:39:50.469Z,19.38
2022-07-30T20:42:18.521Z,19.23
2022-07-30T20:44:49.375Z,19.10
2022-07-30T20:47:34.801Z,19.01
2022-07-30T20:50:10.776Z,18.89
2022-07-30T20:52:46.817Z,18.76
2022-07-30T20:55:22.058Z,18.78
2022-07-30T20:58:01.967Z,18.75
2022-07-30T21:00:40.811Z,18.68
2022-07-30T21:05:56.490Z,18.49
2022-07-30T21:08:25.557Z,18.44
2022-07-30T21:10:53.738Z,18.42
2022-07-30T21:13:22.951Z,18.46
2022-07-30T21:16:01.764Z,18.33
2022-07-30T21:18:31.488Z,18.43
2022-07-30T21:21:00.651Z,18.34
2022-07-30T21:23:27.881Z,18.37
2022-07-30T21:28:41.916Z,17.78
2022-07-30T21:31:09.800Z,17.67
2022-07-30T21:33:37.869Z,17.58
2022-07-30T21:36:10.502Z,17.51
2022-07-30T21:38:42.611Z,17.66
2022-07-30T21:41:15.247Z,17.47
2022-07-30T21:43:44.269Z,17.75
2022-07-30T21:46:12.381Z,17.83
2022-07-30T21:48:39.976Z,17.70
2022-07-30T21:51:08.519Z,17.43
2022-07-30T21:53:44.884Z,17.72
2022-07-30T21:56:14.997Z,17.73
2022-07-30T21:58:43.506Z,17.54
2022-07-30T22:01:17.132Z,17.38
2022-07-30T22:04:03.274Z,17.36
2022-07-30T22:06:39.982Z,17.19
2022-07-30T22:09:19.345Z,16.95
2022-07-30T22:12:01.439Z,16.93
2022-07-30T22:14:29.198Z,16.99
2022-07-30T22:16:56.918Z,16.70
2022-07-30T22:19:25.777Z,16.93
2022-07-30T22:21:53.816Z,16.61
2022-07-30T22:24:29.990Z,16.37
2022-07-30T22:26:59.886Z,16.22
2022-07-30T22:29:34.106Z,16.39
2022-07-30T22:32:04.106Z,16.22
2022-07-30T22:34:32.465Z,16.19
2022-07-30T22:36:59.441Z,16.59
2022-07-30T22:39:32.249Z,16.67
2022-07-30T22:42:13.866Z,16.67
2022-07-30T22:44:42.062Z,16.54
2022-07-30T22:47:18.958Z,16.39
2022-07-30T22:50:00.360Z,16.36
2022-07-30T22:52:28.532Z,16.35
2022-07-30T22:54:59.656Z,15.99
2022-07-30T22:57:37.774Z,15.82
2022-07-30T23:00:14.251Z,15.81
2022-07-30T23:02:56.292Z,15.56
2022-07-30T23:05:24.052Z,15.47
2022-07-30T23:07:51.683Z,15.50
2022-07-30T23:10:20.332Z,15.50
2022-07-30T23:12:26.730Z,18.60
2022-07-30T23:12:31.574Z,18.00
2022-07-30T23:12:51.416Z,15.65
2022-07-30T23:15:19.813Z,16.08
2022-07-30T23:17:47.682Z,16.17
2022-07-30T23:20:23.157Z,16.22
2022-07-30T23:22:50.760Z,16.45
2022-07-30T23:25:18.189Z,16.29
2022-07-30T23:27:46.797Z,16.19
2022-07-30T23:30:14.417Z,16.15
2022-07-30T23:32:41.761Z,16.02
2022-07-30T23:35:10.608Z,16.02
2022-07-30T23:37:48.960Z,16.19
2022-07-30T23:40:18.615Z,16.15
2022-07-30T23:42:47.013Z,16.24
2022-07-30T23:45:14.139Z,16.00
2022-07-30T23:47:52.121Z,15.72
2022-07-30T23:50:29.504Z,15.55
2022-07-30T23:52:56.478Z,15.22
2022-07-30T23:55:23.705Z,15.20
2022-07-30T23:57:50.747Z,15.28
